createdAt,value
2018-12-23T00:02:28.718Z,89.46
2018-12-23T00:04:58.204Z,89.03
2018-12-23T00:07:27.687Z,89.10
2018-12-23T00:09:57.210Z,89.31
2018-12-23T00:12:26.702Z,89.89
2018-12-23T00:14:56.230Z,90.11
2018-12-23T00:17:25.698Z,89.24
2018-12-23T00:19:55.179Z,89.72
2018-12-23T00:22:24.646Z,90.20
2018-12-23T00:24:54.146Z,89.42
2018-12-23T00:27:23.622Z,89.25
2018-12-23T00:29:53.110Z,89.70
2018-12-23T00:32:22.581Z,89.41
2018-12-23T00:34:52.493Z,89.13
2018-12-23T00:37:21.965Z,89.49
2018-12-23T00:39:51.458Z,88.93
2018-12-23T00:42:20.939Z,89.81
2018-12-23T00:44:50.421Z,89.63
2018-12-23T00:47:19.914Z,89.11
2018-12-23T00:49:49.402Z,89.73
2018-12-23T00:52:18.889Z,89.16
2018-12-23T00:54:48.382Z,89.70
2018-12-23T00:57:19.245Z,89.06
2018-12-23T00:59:48.984Z,89.25
2018-12-23T01:02:18.622Z,89.04
2018-12-23T01:04:48.110Z,88.60
2018-12-23T01:07:17.597Z,89.00
2018-12-23T01:09:47.093Z,88.91
2018-12-23T01:12:16.562Z,89.28
2018-12-23T01:14:46.067Z,88.66
2018-12-23T01:17:15.533Z,88.77
2018-12-23T01:19:45.038Z,88.48
2018-12-23T01:22:14.513Z,89.60
2018-12-23T01:24:43.993Z,89.24
2018-12-23T01:27:13.590Z,89.00
2018-12-23T01:29:43.085Z,88.57
2018-12-23T01:32:12.552Z,89.09
2018-12-23T01:34:42.470Z,88.54
2018-12-23T01:37:12.040Z,88.52
2018-12-23T01:39:41.530Z,88.98
2018-12-23T01:42:11.510Z,89.37
2018-12-23T01:44:41.015Z,88.71
2018-12-23T01:47:10.495Z,89.13
2018-12-23T01:49:40.001Z,89.06
2018-12-23T01:52:09.475Z,88.93
2018-12-23T01:54:38.969Z,89.11
2018-12-23T01:57:08.438Z,88.90
2018-12-23T01:59:37.942Z,89.41
2018-12-23T02:02:07.445Z,89.29
2018-12-23T02:04:36.957Z,89.33
2018-12-23T02:07:06.637Z,89.55
2018-12-23T02:09:36.152Z,89.50
2018-12-23T02:12:05.641Z,89.90
2018-12-23T02:14:35.138Z,90.22
2018-12-23T02:17:04.630Z,89.66
2018-12-23T02:19:34.142Z,89.79
2018-12-23T02:22:03.631Z,89.37
2018-12-23T02:24:33.138Z,90.21
2018-12-23T02:27:02.598Z,89.68
2018-12-23T02:29:32.235Z,89.58
2018-12-23T02:32:01.702Z,89.34
2018-12-23T02:34:31.190Z,89.20
2018-12-23T02:37:00.671Z,89.68
2018-12-23T02:39:30.189Z,90.27
2018-12-23T02:41:59.659Z,90.29
2018-12-23T02:44:29.153Z,90.48
2018-12-23T02:46:58.614Z,90.41
2018-12-23T02:49:28.114Z,90.19
2018-12-23T02:51:57.586Z,90.39
2018-12-23T02:54:27.095Z,90.77
2018-12-23T02:56:56.562Z,91.09
2018-12-23T02:59:26.040Z,91.23
2018-12-23T03:01:55.524Z,90.92
2018-12-23T03:04:25.007Z,90.77
2018-12-23T03:06:54.791Z,90.87
2018-12-23T03:09:24.292Z,90.73
2018-12-23T03:11:53.762Z,90.75
2018-12-23T03:14:23.254Z,90.96
2018-12-23T03:16:52.732Z,91.00
2018-12-23T03:19:22.534Z,90.91
2018-12-23T03:21:52.123Z,90.95
2018-12-23T03:24:21.613Z,90.23
2018-12-23T03:26:51.083Z,90.70
2018-12-23T03:29:20.735Z,91.09
2018-12-23T03:31:50.225Z,90.62
2018-12-23T03:34:19.727Z,91.35
2018-12-23T03:36:49.482Z,90.90
2018-12-23T03:39:18.974Z,91.54
2018-12-23T03:41:48.449Z,91.78
2018-12-23T03:44:17.944Z,91.75
2018-12-23T03:46:47.415Z,92.23
2018-12-23T03:49:16.907Z,92.54
2018-12-23T03:51:46.586Z,92.88
2018-12-23T03:54:16.082Z,92.65
2018-12-23T03:56:45.566Z,92.52
2018-12-23T03:59:15.078Z,93.02
2018-12-23T04:01:44.581Z,92.52
2018-12-23T04:04:14.119Z,93.10
2018-12-23T04:06:43.574Z,93.00
2018-12-23T04:09:13.071Z,93.54
2018-12-23T04:11:42.544Z,93.27
2018-12-23T04:14:12.049Z,93.45
2018-12-23T04:16:41.517Z,93.39
2018-12-23T04:19:11.001Z,92.54
2018-12-23T04:21:40.482Z,92.56
2018-12-23T04:24:09.984Z,92.62
2018-12-23T04:26:39.990Z,93.00
2018-12-23T04:29:09.493Z,93.11
2018-12-23T04:31:38.967Z,92.81
2018-12-23T04:34:08.462Z,93.05
2018-12-23T04:36:37.926Z,93.18
2018-12-23T04:39:07.425Z,93.47
2018-12-23T04:41:36.985Z,93.71
2018-12-23T04:44:06.566Z,92.66
2018-12-23T04:46:36.043Z,93.15
2018-12-23T04:49:05.562Z,92.94
2018-12-23T04:51:35.022Z,93.05
2018-12-23T04:54:04.539Z,93.18
2018-12-23T04:56:34.014Z,92.94
2018-12-23T04:59:03.633Z,93.48
2018-12-23T05:01:33.102Z,92.89
2018-12-23T05:04:02.606Z,92.93
2018-12-23T05:06:32.074Z,92.70
2018-12-23T05:09:01.570Z,92.47
2018-12-23T05:11:31.036Z,92.58
2018-12-23T05:14:00.552Z,93.47
2018-12-23T05:16:30.026Z,92.53
2018-12-23T05:18:59.539Z,92.61
2018-12-23T05:21:29.033Z,93.31
2018-12-23T05:23:58.526Z,93.68
2018-12-23T05:26:27.987Z,92.97
2018-12-23T05:28:57.495Z,92.64
2018-12-23T05:31:26.977Z,92.65
2018-12-23T05:33:56.501Z,92.19
2018-12-23T05:36:25.972Z,91.94
2018-12-23T05:38:55.471Z,92.07
2018-12-23T05:41:25.350Z,92.95
2018-12-23T05:43:54.918Z,92.63
2018-12-23T05:46:24.521Z,92.50
2018-12-23T05:48:53.982Z,92.11
2018-12-23T05:51:23.487Z,91.69
2018-12-23T05:53:52.950Z,91.87
2018-12-23T05:56:22.630Z,92.26
2018-12-23T05:58:52.094Z,91.78
2018-12-23T06:01:21.618Z,91.36
2018-12-23T06:03:51.101Z,90.79
2018-12-23T06:06:20.607Z,90.97
2018-12-23T06:08:50.109Z,90.81
2018-12-23T06:11:19.701Z,90.73
2018-12-23T06:13:49.162Z,90.01
2018-12-23T06:16:18.758Z,90.17
2018-12-23T06:18:48.225Z,89.56
2018-12-23T06:21:17.719Z,89.49
2018-12-23T06:23:47.190Z,89.91
2018-12-23T06:26:16.681Z,90.05
2018-12-23T06:28:46.155Z,90.31
2018-12-23T06:31:15.653Z,90.62
2018-12-23T06:33:45.137Z,89.62
2018-12-23T06:36:14.666Z,89.83
2018-12-23T06:38:44.142Z,89.35
2018-12-23T06:41:13.745Z,90.18
2018-12-23T06:43:43.226Z,89.78
2018-12-23T06:46:12.734Z,89.36
2018-12-23T06:48:42.206Z,89.13
2018-12-23T06:51:11.698Z,89.64
2018-12-23T06:53:41.174Z,89.44
2018-12-23T06:56:10.653Z,89.86
2018-12-23T06:58:40.124Z,90.00
2018-12-23T07:01:09.630Z,89.73
2018-12-23T07:03:39.103Z,89.78
2018-12-23T07:06:08.584Z,89.61
2018-12-23T07:08:38.046Z,89.58
2018-12-23T07:11:07.528Z,89.46
2018-12-23T07:13:37.006Z,89.16
2018-12-23T07:16:06.519Z,88.71
2018-12-23T07:18:35.982Z,88.49
2018-12-23T07:21:05.481Z,89.34
2018-12-23T07:23:34.942Z,88.25
2018-12-23T07:26:04.437Z,89.10
2018-12-23T07:28:33.911Z,88.79
2018-12-23T07:31:03.418Z,88.87
2018-12-23T07:33:32.902Z,89.39
2018-12-23T07:36:02.486Z,89.30
2018-12-23T07:38:32.061Z,88.52
2018-12-23T07:41:01.567Z,88.78
2018-12-23T07:43:31.040Z,89.03
2018-12-23T07:46:00.526Z,88.79
2018-12-23T07:48:29.986Z,89.56
2018-12-23T07:50:59.502Z,89.48
2018-12-23T07:53:28.974Z,89.32
2018-12-23T07:55:59.472Z,89.33
2018-12-23T07:58:29.120Z,89.19
2018-12-23T08:00:58.610Z,88.88
2018-12-23T08:03:28.066Z,88.56
2018-12-23T08:05:57.579Z,87.97
2018-12-23T08:08:27.254Z,88.63
2018-12-23T08:10:57.061Z,87.97
2018-12-23T08:13:26.541Z,88.75
2018-12-23T08:15:56.008Z,88.12
2018-12-23T08:18:25.529Z,88.89
2018-12-23T08:20:55.002Z,88.72
2018-12-23T08:23:24.480Z,88.97
2018-12-23T08:25:53.994Z,88.82
2018-12-23T08:28:23.466Z,88.21
2018-12-23T08:30:52.937Z,87.89
2018-12-23T08:33:22.461Z,88.49
2018-12-23T08:35:51.931Z,88.41
2018-12-23T08:38:21.402Z,88.36
2018-12-23T08:40:50.918Z,87.67
2018-12-23T08:43:20.427Z,88.33
2018-12-23T08:45:49.905Z,87.98
2018-12-23T08:48:19.426Z,88.51
2018-12-23T08:50:48.917Z,89.00
2018-12-23T08:53:18.637Z,89.44
2018-12-23T08:55:48.162Z,89.10
2018-12-23T08:58:17.657Z,88.54
2018-12-23T09:00:47.153Z,88.64
2018-12-23T09:03:19.049Z,88.32
2018-12-23T09:05:48.194Z,88.85
2018-12-23T09:08:18.997Z,88.32
2018-12-23T09:10:48.480Z,88.32
2018-12-23T09:13:18.303Z,88.15
2018-12-23T09:15:47.774Z,88.72
2018-12-23T09:18:19.386Z,89.26
2018-12-23T09:20:48.806Z,87.43
2018-12-23T09:23:18.288Z,87.54
2018-12-23T09:25:47.769Z,87.54
2018-12-23T09:28:17.283Z,87.92
2018-12-23T09:30:48.205Z,87.82
2018-12-23T09:33:20.419Z,87.72
2018-12-23T09:35:51.990Z,87.68
2018-12-23T09:38:21.542Z,86.93
2018-12-23T09:40:51.102Z,86.94
2018-12-23T09:43:20.590Z,86.97
2018-12-23T09:45:50.118Z,86.59
2018-12-23T09:48:19.578Z,86.51
2018-12-23T09:50:49.058Z,86.45
2018-12-23T09:53:18.582Z,86.20
2018-12-23T09:55:48.050Z,86.81
2018-12-23T09:58:17.971Z,86.22
2018-12-23T10:00:47.531Z,85.87
2018-12-23T10:03:17.014Z,86.50
2018-12-23T10:05:46.498Z,86.40
2018-12-23T10:08:16.021Z,86.46
2018-12-23T10:10:45.499Z,86.35
2018-12-23T10:13:14.979Z,86.78
2018-12-23T10:15:44.498Z,86.23
2018-12-23T10:18:13.957Z,85.68
2018-12-23T10:20:43.430Z,86.34
2018-12-23T10:23:12.950Z,86.33
2018-12-23T10:25:42.428Z,86.76
2018-12-23T10:28:11.893Z,85.94
2018-12-23T10:30:41.414Z,86.96
2018-12-23T10:33:10.887Z,86.33
2018-12-23T10:35:40.474Z,85.78
2018-12-23T10:38:18.205Z,85.71
2018-12-23T10:40:41.537Z,85.60
2018-12-23T10:43:11.042Z,84.64
2018-12-23T10:45:40.525Z,85.24
2018-12-23T10:48:10.011Z,84.83
2018-12-23T10:50:39.547Z,84.54
2018-12-23T10:53:09.025Z,84.29
2018-12-23T10:55:38.502Z,84.50
2018-12-23T10:58:08.040Z,83.08
2018-12-23T11:00:37.550Z,83.71
2018-12-23T11:03:07.040Z,83.66
2018-12-23T11:05:36.567Z,84.07
2018-12-23T11:08:06.058Z,83.62
2018-12-23T11:10:35.625Z,83.33
2018-12-23T11:13:05.438Z,83.09
2018-12-23T11:15:34.924Z,83.22
2018-12-23T11:18:04.501Z,82.73
2018-12-23T11:20:34.025Z,83.51
2018-12-23T11:23:03.507Z,83.67
2018-12-23T11:25:33.009Z,84.31
2018-12-23T11:28:02.537Z,84.28
2018-12-23T11:30:32.005Z,84.99
2018-12-23T11:33:01.483Z,84.17
2018-12-23T11:35:31.002Z,84.42
2018-12-23T11:38:00.490Z,84.59
2018-12-23T11:40:29.974Z,84.54
2018-12-23T11:42:59.609Z,84.13
2018-12-23T11:45:29.110Z,84.51
2018-12-23T11:47:58.593Z,85.08
2018-12-23T11:50:28.114Z,85.03
2018-12-23T11:52:57.594Z,85.04
2018-12-23T11:55:27.102Z,85.41
2018-12-23T11:57:56.588Z,85.50
2018-12-23T12:00:26.137Z,84.13
2018-12-23T12:02:55.611Z,84.39
2018-12-23T12:05:25.118Z,84.42
2018-12-23T12:07:54.598Z,85.39
2018-12-23T12:10:24.176Z,84.91
2018-12-23T12:12:53.712Z,84.56
2018-12-23T12:15:23.211Z,83.90
2018-12-23T12:17:52.685Z,84.09
2018-12-23T12:20:22.206Z,84.19
2018-12-23T12:22:51.682Z,84.37
2018-12-23T12:25:21.191Z,84.44
2018-12-23T12:27:50.666Z,84.31
2018-12-23T12:30:20.154Z,84.36
2018-12-23T12:32:49.661Z,84.77
2018-12-23T12:35:19.150Z,84.67
2018-12-23T12:37:48.631Z,84.60
2018-12-23T12:40:18.149Z,84.76
2018-12-23T12:42:47.626Z,85.11
2018-12-23T12:45:17.110Z,84.34
2018-12-23T12:47:46.643Z,85.44
2018-12-23T12:50:16.126Z,84.77
2018-12-23T12:52:45.606Z,84.90
2018-12-23T12:55:15.118Z,84.46
2018-12-23T12:57:44.626Z,84.73
2018-12-23T13:00:14.127Z,85.47
2018-12-23T13:02:43.644Z,85.57
2018-12-23T13:05:13.122Z,84.87
2018-12-23T13:07:42.601Z,85.30
2018-12-23T13:10:12.153Z,85.47
2018-12-23T13:12:41.706Z,85.62
2018-12-23T13:15:11.198Z,84.97
2018-12-23T13:17:40.716Z,85.51
2018-12-23T13:20:10.210Z,85.51
2018-12-23T13:22:39.670Z,85.33
2018-12-23T13:25:09.198Z,85.59
2018-12-23T13:27:38.670Z,85.25
2018-12-23T13:30:08.246Z,85.95
2018-12-23T13:32:37.773Z,85.51
2018-12-23T13:35:07.297Z,85.79
2018-12-23T13:37:36.769Z,85.60
2018-12-23T13:40:18.255Z,86.03
2018-12-23T13:43:12.462Z,86.23
2018-12-23T13:45:50.630Z,86.44
2018-12-23T13:50:38.026Z,87.42
2018-12-23T13:53:22.278Z,88.66
2018-12-23T13:58:06.573Z,88.34
2018-12-23T14:00:50.146Z,88.87
2018-12-23T14:03:59.952Z,89.34
2018-12-23T14:07:47.153Z,89.56
2018-12-23T14:10:27.745Z,89.81
2018-12-23T14:12:57.254Z,90.32
2018-12-23T14:15:26.714Z,90.56
2018-12-23T14:17:56.198Z,91.10
2018-12-23T14:20:25.729Z,90.96
2018-12-23T14:22:55.211Z,90.73
2018-12-23T14:25:24.674Z,90.95
2018-12-23T14:27:54.191Z,90.89
2018-12-23T14:30:23.654Z,90.99
2018-12-23T14:32:53.258Z,91.05
2018-12-23T14:35:22.766Z,91.16
2018-12-23T14:37:52.231Z,91.42
2018-12-23T14:40:21.705Z,91.95
2018-12-23T14:42:51.218Z,92.00
2018-12-23T14:45:20.991Z,91.58
2018-12-23T14:47:50.465Z,91.69
2018-12-23T14:50:19.974Z,91.91
2018-12-23T14:52:49.443Z,92.16
2018-12-23T14:55:18.922Z,91.44
2018-12-23T14:57:48.498Z,91.63
2018-12-23T15:00:17.985Z,91.75
2018-12-23T15:02:47.462Z,91.75
2018-12-23T15:05:16.983Z,91.80
2018-12-23T15:07:46.446Z,91.76
2018-12-23T15:10:15.935Z,91.58
2018-12-23T15:12:45.430Z,91.42
2018-12-23T15:15:14.908Z,91.77
2018-12-23T15:17:44.374Z,91.40
2018-12-23T15:20:13.889Z,91.20
2018-12-23T15:22:43.351Z,91.06
2018-12-23T15:25:12.865Z,90.90
2018-12-23T15:27:42.365Z,91.83
2018-12-23T15:30:11.851Z,91.67
2018-12-23T15:32:41.338Z,91.35
2018-12-23T15:35:10.898Z,91.25
2018-12-23T15:37:40.446Z,91.65
2018-12-23T15:40:09.914Z,91.41
2018-12-23T15:42:39.417Z,92.16
2018-12-23T15:45:08.896Z,92.02
2018-12-23T15:47:38.772Z,91.21
2018-12-23T15:50:08.294Z,91.45
2018-12-23T15:52:37.765Z,91.25
2018-12-23T15:55:07.238Z,91.30
2018-12-23T15:57:36.752Z,91.05
2018-12-23T16:00:06.434Z,91.22
2018-12-23T16:02:35.894Z,91.69
2018-12-23T16:05:05.501Z,92.11
2018-12-23T16:07:34.969Z,92.41
2018-12-23T16:10:05.055Z,92.71
2018-12-23T16:12:34.526Z,92.27
2018-12-23T16:15:04.172Z,91.99
2018-12-23T16:17:33.695Z,91.73
2018-12-23T16:20:03.291Z,91.57
2018-12-23T16:22:32.766Z,91.34
2018-12-23T16:25:02.298Z,92.14
2018-12-23T16:27:31.761Z,92.57
2018-12-23T16:30:01.241Z,91.91
2018-12-23T16:32:30.766Z,91.87
2018-12-23T16:35:00.238Z,92.33
2018-12-23T16:37:29.706Z,91.75
2018-12-23T16:39:59.711Z,92.17
2018-12-23T16:42:31.006Z,92.62
2018-12-23T16:45:00.550Z,91.92
2018-12-23T16:47:30.318Z,92.64
2018-12-23T16:49:59.782Z,91.83
2018-12-23T16:52:29.310Z,91.84
2018-12-23T16:54:58.790Z,92.48
2018-12-23T16:57:28.254Z,92.06
2018-12-23T16:59:57.902Z,92.25
2018-12-23T17:02:27.410Z,92.39
2018-12-23T17:04:56.882Z,92.25
2018-12-23T17:07:26.416Z,92.17
2018-12-23T17:09:55.886Z,92.19
2018-12-23T17:12:25.365Z,92.45
2018-12-23T17:14:55.671Z,91.94
2018-12-23T17:17:25.153Z,92.31
2018-12-23T17:19:54.622Z,92.50
2018-12-23T17:22:24.257Z,93.00
2018-12-23T17:24:53.746Z,93.53
2018-12-23T17:27:23.220Z,92.79
2018-12-23T17:29:52.812Z,92.86
2018-12-23T17:32:22.565Z,93.22
2018-12-23T17:34:52.082Z,92.77
2018-12-23T17:37:21.669Z,92.84
2018-12-23T17:39:51.139Z,93.15
2018-12-23T17:42:27.085Z,93.74
2018-12-23T17:44:56.550Z,93.16
2018-12-23T17:47:26.016Z,93.90
2018-12-23T17:49:55.545Z,93.45
2018-12-23T17:52:25.062Z,93.76
2018-12-23T17:54:54.534Z,93.66
2018-12-23T17:57:24.058Z,93.63
2018-12-23T17:59:53.542Z,93.34
2018-12-23T18:02:23.008Z,93.63
2018-12-23T18:04:54.059Z,93.67
2018-12-23T18:07:23.526Z,93.10
2018-12-23T18:09:54.238Z,93.26
2018-12-23T18:12:23.729Z,93.15
2018-12-23T18:14:53.228Z,93.90
2018-12-23T18:17:22.825Z,93.84
2018-12-23T18:19:52.290Z,93.82
2018-12-23T18:22:21.759Z,93.54
2018-12-23T18:24:51.265Z,94.11
2018-12-23T18:27:20.734Z,93.82
2018-12-23T18:29:50.202Z,93.63
2018-12-23T18:32:19.703Z,93.26
2018-12-23T18:34:49.181Z,93.02
2018-12-23T18:37:18.653Z,92.70
2018-12-23T18:39:48.162Z,93.33
2018-12-23T18:42:17.641Z,93.82
2018-12-23T18:44:47.370Z,94.05
2018-12-23T18:47:17.279Z,93.92
2018-12-23T18:49:46.780Z,93.11
2018-12-23T18:52:16.336Z,92.47
2018-12-23T18:54:46.409Z,92.77
2018-12-23T18:57:17.549Z,93.27
2018-12-23T18:59:48.344Z,93.16
2018-12-23T19:02:25.664Z,93.57
2018-12-23T19:04:55.161Z,93.30
2018-12-23T19:07:24.647Z,93.79
2018-12-23T19:10:16.145Z,93.48
2018-12-23T19:13:15.682Z,93.23
2018-12-23T19:16:10.103Z,93.12
2018-12-23T19:21:58.378Z,94.04
2018-12-23T19:24:41.565Z,93.57
2018-12-23T19:28:24.250Z,92.95
2018-12-23T19:32:02.743Z,93.37
2018-12-23T19:34:59.682Z,93.68
2018-12-23T19:37:49.354Z,93.03
2018-12-23T19:41:47.950Z,93.69
2018-12-23T19:45:33.046Z,93.33
2018-12-23T19:50:20.653Z,93.29
2018-12-23T19:53:04.702Z,92.36
2018-12-23T19:59:57.707Z,92.93
2018-12-23T20:04:47.658Z,93.32
2018-12-23T20:08:09.378Z,93.31
2018-12-23T20:11:30.314Z,93.42
2018-12-23T20:14:17.700Z,93.14
2018-12-23T20:17:00.018Z,93.21
2018-12-23T20:19:40.595Z,93.53
2018-12-23T20:22:25.079Z,93.02
2018-12-23T20:25:06.071Z,92.80
2018-12-23T20:28:45.270Z,93.09
2018-12-23T20:32:03.067Z,92.96
2018-12-23T20:34:51.218Z,92.88
2018-12-23T20:38:33.607Z,93.18
2018-12-23T20:41:21.983Z,92.99
2018-12-23T20:44:06.141Z,93.22
2018-12-23T20:46:51.970Z,93.01
2018-12-23T20:50:30.226Z,92.88
2018-12-23T20:53:59.612Z,92.95
2018-12-23T20:57:49.907Z,93.35
2018-12-23T21:01:01.445Z,92.45
2018-12-23T21:03:50.574Z,93.10
2018-12-23T21:07:10.535Z,93.54
2018-12-23T21:09:54.777Z,93.58
2018-12-23T21:12:42.694Z,93.08
2018-12-23T21:16:27.145Z,93.26
2018-12-23T21:19:14.078Z,93.55
2018-12-23T21:22:54.567Z,93.20
2018-12-23T21:25:36.755Z,92.17
2018-12-23T21:29:35.588Z,92.66
2018-12-23T21:32:44.328Z,92.83
2018-12-23T21:35:52.817Z,92.92
2018-12-23T21:39:01.254Z,92.55
2018-12-23T21:42:09.743Z,92.47
2018-12-23T21:45:18.174Z,92.21
2018-12-23T21:48:27.094Z,92.31
2018-12-23T21:51:35.417Z,92.33
2018-12-23T21:54:43.920Z,92.52
2018-12-23T21:57:52.352Z,92.61
2018-12-23T22:01:02.376Z,92.64
2018-12-23T22:04:12.521Z,92.96
2018-12-23T22:07:21.038Z,92.79
2018-12-23T22:10:17.729Z,92.73
2018-12-23T22:13:26.252Z,92.80
2018-12-23T22:15:57.057Z,92.82
2018-12-23T22:18:29.314Z,92.68
2018-12-23T22:21:00.219Z,92.30
2018-12-23T22:23:30.787Z,92.50
2018-12-23T22:26:03.583Z,92.45
2018-12-23T22:28:34.032Z,92.54
2018-12-23T22:31:04.592Z,92.21
2018-12-23T22:33:35.117Z,92.62
2018-12-23T22:36:05.581Z,91.95
2018-12-23T22:38:36.471Z,92.27
2018-12-23T22:44:44.807Z,91.95
2018-12-23T22:47:35.701Z,92.51
2018-12-23T22:50:06.374Z,92.34
2018-12-23T22:52:36.855Z,92.12
2018-12-23T22:55:07.319Z,92.01
2018-12-23T22:57:38.585Z,91.93
2018-12-23T23:00:11.576Z,91.99
2018-12-23T23:02:42.097Z,91.87
2018-12-23T23:05:12.597Z,92.05
2018-12-23T23:07:43.063Z,92.06
2018-12-23T23:10:13.533Z,91.99
2018-12-23T23:12:44.063Z,92.11
2018-12-23T23:15:15.287Z,92.14
2018-12-23T23:17:45.747Z,91.92
2018-12-23T23:20:16.973Z,91.95
2018-12-23T23:22:47.630Z,91.96
2018-12-23T23:25:19.179Z,92.12
2018-12-23T23:27:49.689Z,92.12
2018-12-23T23:30:20.161Z,92.01
2018-12-23T23:32:52.361Z,91.92
2018-12-23T23:35:42.368Z,91.77
2018-12-23T23:38:32.478Z,92.30
2018-12-23T23:41:04.816Z,92.70
2018-12-23T23:43:36.682Z,92.65
2018-12-23T23:46:07.531Z,92.07
2018-12-23T23:48:38.144Z,92.48
2018-12-23T23:51:10.367Z,92.61
2018-12-23T23:53:40.856Z,92.38
2018-12-23T23:56:11.367Z,92.86
2018-12-23T23:58:42.210Z,93.04
